Flight Track Log - Related Links

Times and Time Zones

All times are in EDT time to prevent confusion due to time zone crossing. See the CPZ5750 flight status page for this flight to view local times or setup timezone preferences in your user account.

Time Position Orientation Groundspeed Altitude Reporting Facility
EDT Latitude Longitude Course Direction KTS MPH feet Rate Location/Type
Fri 07:33:54 PM 42.7861 -73.8122 348° North 145 167 1,900  Level Boston Center
Fri 07:34:54 PM 42.8333 -73.8669 320° Northwest 248 285 3,300 2,333 Climbing Boston Center
Fri 07:36:00 PM 42.8453 -74.4051 283° West  Level FlightAware Approximate
Fri 07:36:18 PM 42.9050 -73.9678 314° West 285 328 7,500  Level Boston Center
Fri 07:37:00 PM 42.8822 -74.5489 324° Northwest  Level FlightAware Approximate
Fri 07:37:18 PM 42.9581 -74.0372 316° Northwest 285 328 10,100  Level Boston Center
Fri 07:38:00 PM 42.9044 -74.7033 281° West  Level FlightAware Approximate
Fri 07:38:18 PM 43.0278 -74.1328 315° West 310 357 11,700  Level Boston Center
Fri 07:39:18 PM 43.0953 -74.2172 318° Northwest 345 397 13,500 2,050 Climbing Boston Center
Fri 07:40:18 PM 43.1767 -74.3250 316° Northwest 371 427 15,800 2,100 Climbing Boston Center
Fri 07:41:18 PM 43.2081 -74.4456 290° West 372 428 17,700 1,800 Climbing Boston Center
Fri 07:42:18 PM 43.2092 -74.6108 271° West 372 428 19,400 1,750 Climbing Boston Center
Fri 07:43:18 PM 43.2061 -74.7644 268° West 389 448 21,200 1,700 Climbing Boston Center
Fri 07:44:18 PM 43.2008 -74.9181 267° West 401 461 22,800 1,364 Climbing Boston Center
Fri 07:45:30 PM 43.1953 -75.0747 267° West 411 473 24,200 1,455 Climbing Boston Center
Fri 07:46:30 PM 43.1906 -75.2708 268° West 423 487 26,000 1,450 Climbing Boston Center
Fri 07:47:30 PM 43.1864 -75.4331 268° West 423 487 27,100 1,000 Climbing Boston Center
Fri 07:48:30 PM 43.1822 -75.5925 268° West 423 487 28,000 950 Climbing Boston Center
Fri 07:49:30 PM 43.1775 -75.7600 268° West 429 494 29,000 1,100 Climbing Boston Center
Fri 07:50:30 PM 43.1711 -75.9050 267° West 429 494 30,200 1,229 Climbing Boston Center
Fri 07:53:00 PM 43.1522 -76.3028 266° West 408 470 33,300 1,171 Climbing Cleveland Center
Fri 07:54:00 PM 43.1408 -76.4514 264° West 403 464 34,300 950 Climbing Cleveland Center
Fri 07:55:00 PM 43.1294 -76.5975 264° West 398 458 35,200 750 Climbing Cleveland Center
Fri 07:56:00 PM 43.1153 -76.7378 262° West 392 451 35,800 400 Climbing Cleveland Center
Fri 07:57:00 PM 43.1014 -76.8836 263° West 387 445 36,000 100 Climbing Cleveland Center
Fri 07:58:00 PM 43.0894 -77.0322 264° West 392 451 36,000  Level Cleveland Center
Fri 07:59:00 PM 43.0750 -77.1781 262° West 392 451 36,000  Level Cleveland Center
Fri 08:00:00 PM 43.0606 -77.3267 262° West 392 451 36,000  Level Cleveland Center
Fri 08:01:00 PM 43.0478 -77.4750 263° West 392 451 36,000  Level Cleveland Center
Fri 08:02:00 PM 43.0603 -77.6250 277° West 392 451 36,000  Level Cleveland Center
Fri 08:03:00 PM 43.1014 -77.7794 290° West 417 480 36,000  Level Cleveland Center
Fri 08:04:00 PM 43.1425 -77.9314 290° West 417 480 36,000  Level Cleveland Center
Fri 08:05:00 PM 43.1836 -78.0833 290° West 417 480 36,000  Level Cleveland Center
Fri 08:06:00 PM 43.2242 -78.2356 290° West 422 486 36,000  Level Cleveland Center
Fri 08:07:00 PM 43.2667 -78.3881 291° West 422 486 36,000  Level Cleveland Center
Fri 08:08:00 PM 43.3072 -78.5433 290° West 422 486 36,000  Level Cleveland Center
Fri 08:09:00 PM 43.3472 -78.6964 290° West 427 491 36,000  Level Cleveland Center
Fri 08:09:52 PM 43.3833 -78.8000 296° West 430 495 36,000  Level Toronto Center
Fri 08:10:52 PM 43.4167 -78.9667 285° West 430 495 36,000  Level Toronto Center
Fri 08:11:52 PM 43.4500 -79.1333 285° West 430 495 36,000  Level Toronto Center
Fri 08:12:52 PM 43.4833 -79.2667 289° West 440 506 36,000  Level Toronto Center
Fri 08:13:52 PM 43.5333 -79.4500 291° West 440 506 36,000  Level Toronto Center
Fri 08:14:52 PM 43.5667 -79.6167 285° West 440 506 36,000  Level Toronto Center
Fri 08:15:52 PM 43.6167 -79.7667 295° West 460 529 36,000  Level Toronto Center
Fri 08:16:51 PM 43.6500 -79.9333 286° West 440 506 36,000  Level Toronto Center
Fri 08:17:51 PM 43.7000 -80.1000 293° West 440 506 36,000  Level Toronto Center
Fri 08:18:51 PM 43.7333 -80.2500 287° West 440 506 36,000  Level Toronto Center
Fri 08:19:52 PM 43.7667 -80.4167 286° West 450 518 36,000  Level Toronto Center
Fri 08:20:52 PM 43.8167 -80.5833 293° West 450 518 36,000  Level Toronto Center
Fri 08:21:51 PM 43.8500 -80.7500 286° West 450 518 36,000  Level Toronto Center
Fri 08:22:51 PM 43.8833 -80.9000 287° West 450 518 36,000  Level Toronto Center
Fri 08:23:52 PM 43.9167 -81.0667 286° West 460 529 36,000  Level Toronto Center
Fri 08:24:51 PM 43.9667 -81.2500 291° West 450 518 36,000  Level Toronto Center
Fri 08:25:51 PM 44.0000 -81.4000 287° West 450 518 36,000  Level Toronto Center
Fri 08:26:51 PM 44.0333 -81.5833 284° West 440 506 36,000  Level Toronto Center
Fri 08:27:51 PM 44.0833 -81.7500 293° West 450 518 36,000  Level Toronto Center
Fri 08:28:52 PM 44.1167 -81.8833 289° West 450 518 36,000  Level Toronto Center
Fri 08:29:51 PM 44.1500 -82.0667 284° West 450 518 36,000  Level Toronto Center
Fri 08:30:51 PM 44.1833 -82.2167 287° West 450 518 36,000  Level Toronto Center
Fri 08:31:52 PM 44.2167 -82.4000 284° West 440 506 36,000  Level Toronto Center
Fri 08:33:23 PM 44.2575 -82.6458 283° West 461 531 36,000  Level Minneapolis Center
Fri 08:34:25 PM 44.2808 -82.8539 279° West 456 525 36,000  Level Minneapolis Center
Fri 08:35:27 PM 44.2983 -83.0272 278° West 453 521 36,000  Level Minneapolis Center
Fri 08:36:29 PM 44.3178 -83.1978 279° West 449 517 36,000  Level Minneapolis Center
Fri 08:37:32 PM 44.3347 -83.3697 278° West 449 517 36,000  Level Minneapolis Center
Fri 08:38:34 PM 44.3547 -83.5397 279° West 446 513 36,000  Level Minneapolis Center
Fri 08:39:36 PM 44.3731 -83.7119 279° West 449 517 36,000  Level Minneapolis Center
Fri 08:40:38 PM 44.3922 -83.9178 277° West 447 514 36,000  Level Minneapolis Center
Fri 08:41:39 PM 44.4067 -84.0544 278° West 445 512 36,000  Level Minneapolis Center
Fri 08:42:42 PM 44.4272 -84.2589 278° West 444 511 36,000  Level Minneapolis Center
Fri 08:43:44 PM 44.4439 -84.4319 278° West 450 518 36,000  Level Minneapolis Center
Fri 08:44:46 PM 44.4611 -84.6064 278° West 453 521 36,000  Level Minneapolis Center
Fri 08:45:48 PM 44.4781 -84.7811 278° West 455 524 36,000  Level Minneapolis Center
Fri 08:46:50 PM 44.4964 -84.9911 277° West 455 524 36,000  Level Minneapolis Center
Fri 08:47:52 PM 44.5128 -85.1636 278° West 450 518 36,000  Level Minneapolis Center
Fri 08:48:54 PM 44.5281 -85.3367 277° West 449 517 36,000  Level Minneapolis Center
Fri 08:49:56 PM 44.5425 -85.5092 277° West 447 514 36,000  Level Minneapolis Center
Fri 08:50:58 PM 44.5572 -85.6811 277° West 443 510 36,000  Level Minneapolis Center
Fri 08:52:00 PM 44.5706 -85.8503 276° West 436 502 36,000  Level Minneapolis Center
Fri 08:53:02 PM 44.5847 -86.0203 277° West 434 499 36,000  Level Minneapolis Center
Fri 08:54:05 PM 44.5983 -86.1922 276° West 437 503 36,000  Level Minneapolis Center
Fri 08:55:07 PM 44.6147 -86.3950 277° West 433 498 36,000  Level Minneapolis Center
Fri 08:56:09 PM 44.6289 -86.5647 277° West 435 501 36,000  Level Minneapolis Center
Fri 08:57:23 PM 44.6408 -86.7328 276° West 434 499 36,000  Level Minneapolis Center
Fri 08:58:25 PM 44.6567 -86.9336 276° West 433 498 36,000  Level Minneapolis Center
Fri 08:59:27 PM 44.6683 -87.1011 276° West 432 497 36,000  Level Minneapolis Center
Fri 09:00:29 PM 44.6806 -87.2681 276° West 431 496 36,000  Level Minneapolis Center
Fri 09:01:31 PM 44.6950 -87.4664 276° West 428 493 36,000  Level Minneapolis Center
Fri 09:02:33 PM 44.7056 -87.6353 275° West 431 496 36,000  Level Minneapolis Center
Fri 09:03:35 PM 44.7172 -87.8033 276° West 433 498 36,000  Level Minneapolis Center
Fri 09:04:38 PM 44.7267 -87.9753 274° West 432 497 36,000  Level Minneapolis Center
Fri 09:05:52 PM 44.7381 -88.1442 275° West 435 501 36,000  Level Minneapolis Center
Fri 09:06:54 PM 44.7522 -88.3692 275° West 434 499 36,000  Level Minneapolis Center
Fri 09:07:56 PM 44.7631 -88.5383 275° West 436 502 36,000  Level Minneapolis Center
Fri 09:08:58 PM 44.7731 -88.7078 275° West 436 502 36,000  Level Minneapolis Center
Fri 09:10:12 PM 44.7817 -88.8753 274° West 431 496 36,000  Level Minneapolis Center
Fri 09:11:15 PM 44.7933 -89.1011 274° West 435 501 36,000  Level Minneapolis Center
Fri 09:12:17 PM 44.8019 -89.2667 274° West 430 495 36,000  Level Minneapolis Center
Fri 09:13:19 PM 44.8111 -89.4292 275° West 423 487 36,000 -435 Level Minneapolis Center
Fri 09:14:21 PM 44.8189 -89.5961 274° West 426 490 35,100 -1,065 Descending Minneapolis Center
Fri 09:15:23 PM 44.8292 -89.7894 274° West 443 510 33,800 -1,210 Descending Minneapolis Center
Fri 09:16:25 PM 44.8369 -89.9669 274° West 451 519 32,600 -871 Descending Minneapolis Center
Fri 09:17:27 PM 44.8450 -90.1417 274° West 448 516 32,000 -288 Descending Minneapolis Center
Fri 09:18:30 PM 44.8539 -90.3206 274° West 455 524 32,000  Level Minneapolis Center
Fri 09:19:32 PM 44.8606 -90.4975 273° West 452 520 32,000  Level Minneapolis Center
Fri 09:20:34 PM 44.8719 -90.7092 274° West 451 519 32,000  Level Minneapolis Center
Fri 09:21:36 PM 44.8917 -90.8831 279° West 449 517 32,000  Level Minneapolis Center
Fri 09:22:38 PM 44.9111 -91.0611 279° West 445 512 32,000 -823 Level Minneapolis Center
Fri 09:23:40 PM 44.9328 -91.2361 280° West 449 517 30,300 -2,371 Descending Minneapolis Center
Fri 09:24:42 PM 44.9508 -91.4094 278° West 451 519 27,100 -3,048 Descending Minneapolis Center
Fri 09:25:44 PM 44.9719 -91.5753 280° West 437 503 24,000 -2,952 Descending Minneapolis Center
Fri 09:26:46 PM 44.9889 -91.7364 279° West 422 486 21,000 -3,048 Descending Minneapolis Center
Fri 09:27:48 PM 45.0094 -91.9172 279° West 392 451 17,700 -2,903 Descending Minneapolis Center
Fri 09:28:50 PM 45.0256 -92.0622 279° West 375 432 15,000 -2,565 Descending Minneapolis Center
Fri 09:29:52 PM 45.0400 -92.2022 278° West 364 419 12,400 -1,887 Descending Minneapolis Center
Fri 09:30:54 PM 45.0419 -92.3356 271° West 343 395 11,100 -683 Descending Minneapolis Center
Fri 09:31:55 PM 45.0206 -92.4658 257° West 340 391 11,000 -49 Descending Minneapolis Center
Fri 09:32:57 PM 45.0006 -92.5978 258° West 344 396 11,000  Level Minneapolis Center
Fri 09:33:59 PM 44.9800 -92.7275 257° West 341 392 11,000 -244 Level Minneapolis Center
Fri 09:35:00 PM 44.9597 -92.8528 257° West 328 377 10,500 -1,016 Descending Minneapolis Center
Fri 09:36:03 PM 44.9392 -92.9767 257° West 275 316 8,900 -1,210 Descending Minneapolis Center
Fri 09:37:04 PM 44.9342 -93.0772 266° West 270 311 8,000 -683 Descending Minneapolis Center
Fri 09:38:06 PM 44.9700 -93.1475 306° West 278 320 7,500 -968 Descending Minneapolis Center
Fri 09:39:08 PM 45.0239 -93.2528 306° West 279 321 6,000 -878 Descending Minneapolis Center
Fri 09:40:09 PM 45.0619 -93.3231 307° West 222 255 5,700 -488 Descending Minneapolis Center
Fri 09:41:11 PM 45.1069 -93.3956 311° West 203 234 5,000 -726 Descending Minneapolis Center
Fri 09:42:13 PM 45.1053 -93.4447 267° West 161 185 4,200 -488 Descending Minneapolis Center
Fri 09:43:14 PM 45.0747 -93.4400 174° South 153 176 4,000 -98 Descending Minneapolis Center
Fri 09:44:16 PM 45.0264 -93.4044 153° Southeast 162 186 4,000 -97 Level Minneapolis Center
Fri 09:45:18 PM 44.9872 -93.3769 154° Southeast 158 182 3,800 -484 Descending Minneapolis Center
Fri 09:46:20 PM 44.9503 -93.3506 153° Southeast 150 173 3,000 -774 Descending Minneapolis Center

Login

Don't have an account? Register now (free) for customized features, flight alerts, and more!